createdAt,value
2017-06-24T00:02:16.950Z,17.73
2017-06-24T00:04:44.443Z,17.73
2017-06-24T00:07:11.937Z,18.47
2017-06-24T00:09:39.419Z,16.73
2017-06-24T00:12:06.929Z,18.20
2017-06-24T00:14:34.806Z,16.27
2017-06-24T00:17:02.299Z,16.33
2017-06-24T00:19:30.080Z,17.63
2017-06-24T00:21:57.565Z,15.73
2017-06-24T00:24:25.440Z,15.90
2017-06-24T00:26:53.443Z,16.13
2017-06-24T00:29:20.924Z,16.17
2017-06-24T00:31:48.407Z,16.97
2017-06-24T00:34:16.267Z,17.70
2017-06-24T00:36:44.144Z,16.23
2017-06-24T00:39:11.647Z,15.07
2017-06-24T00:41:39.452Z,15.87
2017-06-24T00:44:07.328Z,15.63
2017-06-24T00:46:34.827Z,16.07
2017-06-24T00:49:02.435Z,15.80
2017-06-24T00:51:29.923Z,15.70
2017-06-24T00:53:57.399Z,14.40
2017-06-24T00:56:24.907Z,15.23
2017-06-24T00:58:52.788Z,15.97
2017-06-24T01:01:20.268Z,16.70
2017-06-24T01:03:48.084Z,15.13
2017-06-24T01:06:15.583Z,14.80
2017-06-24T01:08:43.064Z,15.50
2017-06-24T01:11:10.715Z,15.27
2017-06-24T01:13:38.210Z,16.80
2017-06-24T01:16:06.083Z,16.93
2017-06-24T01:18:33.995Z,14.70
2017-06-24T01:21:01.496Z,14.93
2017-06-24T01:23:29.011Z,16.17
2017-06-24T01:25:56.532Z,17.53
2017-06-24T01:28:25.178Z,16.00
2017-06-24T01:30:52.657Z,15.30
2017-06-24T01:33:20.405Z,16.03
2017-06-24T01:35:48.270Z,16.27
2017-06-24T01:38:16.140Z,16.17
2017-06-24T01:40:44.316Z,17.53
2017-06-24T01:43:12.176Z,16.20
2017-06-24T01:45:40.042Z,17.73
2017-06-24T01:48:07.917Z,16.20
2017-06-24T01:50:35.781Z,17.37
2017-06-24T01:53:03.269Z,16.47
2017-06-24T01:55:30.762Z,16.00
2017-06-24T01:57:58.230Z,18.03
2017-06-24T02:00:25.696Z,17.50
2017-06-24T02:02:53.578Z,17.63
2017-06-24T02:05:21.065Z,16.70
2017-06-24T02:07:48.544Z,16.53
2017-06-24T02:10:16.329Z,19.50
2017-06-24T02:12:44.188Z,18.07
2017-06-24T02:15:11.657Z,19.10
2017-06-24T02:17:39.912Z,17.93
2017-06-24T02:20:07.377Z,19.67
2017-06-24T02:22:35.240Z,20.67
2017-06-24T02:25:03.126Z,19.90
2017-06-24T02:27:30.985Z,21.20
2017-06-24T02:29:58.848Z,20.30
2017-06-24T02:32:26.827Z,18.20
2017-06-24T02:34:54.299Z,19.57
2017-06-24T02:37:21.770Z,19.00
2017-06-24T02:39:49.510Z,19.53
2017-06-24T02:42:16.984Z,20.47
2017-06-24T02:44:44.452Z,19.37
2017-06-24T02:47:11.949Z,20.03
2017-06-24T02:49:39.812Z,18.47
2017-06-24T02:52:07.677Z,19.77
2017-06-24T02:54:35.558Z,20.07
2017-06-24T02:57:03.033Z,22.00
2017-06-24T02:59:30.516Z,20.10
2017-06-24T03:01:58.001Z,19.80
2017-06-24T03:04:25.460Z,19.30
2017-06-24T03:06:53.337Z,20.07
2017-06-24T03:09:21.241Z,21.67
2017-06-24T03:11:48.705Z,21.37
2017-06-24T03:14:16.194Z,20.40
2017-06-24T03:16:43.696Z,20.93
2017-06-24T03:19:11.163Z,20.67
2017-06-24T03:21:38.636Z,18.63
2017-06-24T03:24:06.324Z,20.60
2017-06-24T03:26:34.203Z,21.63
2017-06-24T03:29:01.680Z,21.30
2017-06-24T03:31:29.270Z,24.50
2017-06-24T03:33:56.736Z,22.03
2017-06-24T03:36:24.206Z,24.20
2017-06-24T03:38:51.876Z,23.60
2017-06-24T03:41:19.342Z,24.23
2017-06-24T03:43:47.205Z,25.77
2017-06-24T03:46:15.098Z,25.87
2017-06-24T03:48:42.564Z,25.70
2017-06-24T03:51:10.033Z,24.80
2017-06-24T03:53:37.775Z,24.70
2017-06-24T03:56:05.257Z,27.37
2017-06-24T03:58:32.721Z,26.90
2017-06-24T04:01:00.406Z,27.47
2017-06-24T04:03:28.268Z,25.73
2017-06-24T04:05:56.134Z,25.10
2017-06-24T04:08:23.627Z,26.00
2017-06-24T04:10:51.088Z,25.23
2017-06-24T04:13:18.553Z,25.23
2017-06-24T04:15:46.033Z,24.47
2017-06-24T04:18:13.508Z,25.23
2017-06-24T04:20:40.976Z,25.20
2017-06-24T04:23:08.882Z,23.27
2017-06-24T04:25:36.354Z,25.30
2017-06-24T04:28:03.818Z,23.40
2017-06-24T04:30:31.350Z,23.03
2017-06-24T04:32:58.807Z,23.50
2017-06-24T04:35:26.272Z,22.60
2017-06-24T04:37:53.774Z,22.57
2017-06-24T04:40:21.269Z,24.07
2017-06-24T04:42:48.927Z,23.90
2017-06-24T04:45:16.740Z,24.10
2017-06-24T04:47:44.613Z,22.93
2017-06-24T04:50:12.493Z,28.83
2017-06-24T04:52:40.390Z,26.30
2017-06-24T04:55:07.855Z,29.40
2017-06-24T04:57:35.325Z,29.03
2017-06-24T05:00:02.825Z,30.57
2017-06-24T05:02:31.024Z,30.60
2017-06-24T05:04:58.488Z,32.83
2017-06-24T05:07:27.121Z,33.87
2017-06-24T05:09:54.593Z,35.20
2017-06-24T05:12:22.462Z,36.50
2017-06-24T05:14:49.974Z,36.43
2017-06-24T05:17:17.436Z,34.80
2017-06-24T05:19:44.906Z,36.67
2017-06-24T05:22:13.078Z,38.77
2017-06-24T05:24:40.545Z,32.00
2017-06-24T05:27:08.404Z,38.10
2017-06-24T05:29:36.622Z,35.80
2017-06-24T05:32:04.080Z,34.60
2017-06-24T05:34:31.562Z,35.63
2017-06-24T05:36:59.250Z,34.23
2017-06-24T05:39:27.114Z,33.73
2017-06-24T05:41:54.977Z,37.00
2017-06-24T05:44:22.880Z,32.43
2017-06-24T05:46:50.358Z,33.90
2017-06-24T05:49:17.829Z,34.20
2017-06-24T05:51:45.334Z,33.23
2017-06-24T05:54:12.797Z,32.43
2017-06-24T05:56:40.269Z,32.57
2017-06-24T05:59:08.744Z,31.20
2017-06-24T06:01:37.150Z,30.70
2017-06-24T06:04:04.625Z,29.43
2017-06-24T06:06:32.108Z,29.80
2017-06-24T06:08:59.582Z,31.90
2017-06-24T06:11:27.057Z,27.77
2017-06-24T06:13:54.561Z,29.40
2017-06-24T06:16:22.426Z,28.47
2017-06-24T06:18:49.912Z,24.50
2017-06-24T06:21:17.732Z,24.20
2017-06-24T06:23:45.200Z,23.70
2017-06-24T06:26:12.690Z,25.53
2017-06-24T06:28:40.185Z,24.00
2017-06-24T06:31:08.064Z,23.40
2017-06-24T06:33:35.536Z,25.97
2017-06-24T06:36:03.403Z,23.67
2017-06-24T06:38:31.248Z,25.53
2017-06-24T06:40:58.722Z,24.20
2017-06-24T06:43:26.586Z,27.13
2017-06-24T06:45:54.096Z,24.33
2017-06-24T06:48:21.565Z,24.00
2017-06-24T06:50:49.032Z,22.60
2017-06-24T06:53:17.541Z,23.73
2017-06-24T06:55:45.017Z,25.40
2017-06-24T06:58:12.505Z,22.80
2017-06-24T07:00:40.010Z,24.40
2017-06-24T07:03:07.472Z,23.23
2017-06-24T07:05:34.953Z,23.67
2017-06-24T07:08:02.645Z,22.73
2017-06-24T07:10:30.106Z,27.10
2017-06-24T07:12:57.573Z,22.90
2017-06-24T07:15:25.457Z,22.10
2017-06-24T07:17:52.930Z,22.70
2017-06-24T07:20:20.445Z,22.37
2017-06-24T07:22:48.355Z,22.23
2017-06-24T07:25:15.824Z,23.00
2017-06-24T07:27:43.313Z,23.83
2017-06-24T07:30:10.981Z,23.73
2017-06-24T07:32:38.453Z,23.40
2017-06-24T07:35:06.317Z,22.17
2017-06-24T07:37:34.276Z,23.37
2017-06-24T07:40:02.715Z,21.97
2017-06-24T07:42:30.184Z,24.00
2017-06-24T07:44:58.174Z,22.83
2017-06-24T07:47:26.040Z,22.00
2017-06-24T07:49:53.913Z,24.23
2017-06-24T07:52:21.410Z,23.37
2017-06-24T07:54:49.996Z,24.47
2017-06-24T07:57:17.464Z,22.10
2017-06-24T07:59:44.973Z,23.80
2017-06-24T08:02:12.447Z,23.73
2017-06-24T08:04:40.470Z,22.10
2017-06-24T08:07:08.229Z,19.40
2017-06-24T08:09:36.109Z,19.40
2017-06-24T08:12:03.972Z,21.70
2017-06-24T08:14:31.848Z,23.83
2017-06-24T08:16:59.324Z,22.57
2017-06-24T08:19:26.796Z,23.30
2017-06-24T08:21:54.294Z,22.13
2017-06-24T08:24:21.761Z,23.50
2017-06-24T08:26:50.601Z,22.93
2017-06-24T08:29:18.241Z,19.80
2017-06-24T08:31:45.740Z,20.60
2017-06-24T08:34:13.227Z,21.27
2017-06-24T08:36:41.121Z,23.50
2017-06-24T08:39:08.589Z,22.57
2017-06-24T08:41:36.053Z,20.80
2017-06-24T08:44:03.801Z,23.27
2017-06-24T08:46:31.268Z,21.70
2017-06-24T08:48:58.742Z,25.00
2017-06-24T08:51:26.332Z,23.10
2017-06-24T08:53:53.816Z,31.90
2017-06-24T08:56:21.300Z,27.17
2017-06-24T08:58:48.877Z,24.67
2017-06-24T09:01:16.349Z,28.50
2017-06-24T09:03:44.227Z,27.43
2017-06-24T09:06:11.736Z,26.60
2017-06-24T09:08:39.220Z,27.43
2017-06-24T09:11:07.126Z,27.50
2017-06-24T09:13:34.949Z,29.87
2017-06-24T09:16:02.817Z,27.40
2017-06-24T09:18:30.282Z,28.87
2017-06-24T09:20:58.177Z,27.40
2017-06-24T09:23:25.649Z,26.23
2017-06-24T09:25:53.123Z,29.20
2017-06-24T09:28:20.818Z,29.93
2017-06-24T09:30:48.681Z,26.47
2017-06-24T09:33:16.548Z,28.10
2017-06-24T09:35:44.066Z,28.43
2017-06-24T09:38:11.544Z,30.13
2017-06-24T09:40:39.424Z,29.20
2017-06-24T09:43:07.580Z,28.10
2017-06-24T09:45:35.448Z,31.10
2017-06-24T09:48:03.312Z,29.33
2017-06-24T09:50:31.224Z,32.40
2017-06-24T09:52:58.717Z,31.73
2017-06-24T09:55:26.196Z,28.93
2017-06-24T09:57:54.190Z,28.27
2017-06-24T10:00:21.718Z,32.07
2017-06-24T10:02:49.202Z,29.23
2017-06-24T10:05:16.742Z,28.03
2017-06-24T10:07:44.246Z,30.40
2017-06-24T10:10:11.721Z,27.03
2017-06-24T10:12:39.501Z,27.13
2017-06-24T10:15:08.185Z,28.40
2017-06-24T10:17:36.062Z,25.97
2017-06-24T10:20:04.130Z,28.80
2017-06-24T10:22:32.002Z,30.00
2017-06-24T10:25:00.125Z,28.20
2017-06-24T10:27:27.657Z,31.00
2017-06-24T10:29:55.167Z,29.87
2017-06-24T10:32:23.053Z,33.50
2017-06-24T10:34:51.121Z,32.03
2017-06-24T10:37:19.007Z,32.67
2017-06-24T10:39:46.502Z,27.60
2017-06-24T10:42:14.038Z,30.30
2017-06-24T10:44:41.516Z,28.60
2017-06-24T10:47:08.998Z,30.30
2017-06-24T10:49:37.427Z,30.27
2017-06-24T10:52:04.933Z,27.83
2017-06-24T10:54:32.840Z,25.83
2017-06-24T10:57:00.371Z,25.90
2017-06-24T10:59:28.237Z,27.77
2017-06-24T11:01:55.720Z,26.20
2017-06-24T11:04:23.484Z,26.53
2017-06-24T11:06:50.966Z,27.43
2017-06-24T11:09:18.470Z,30.30
2017-06-24T11:11:48.008Z,30.73
2017-06-24T11:14:16.037Z,28.67
2017-06-24T11:16:43.534Z,33.33
2017-06-24T11:19:11.048Z,32.50
2017-06-24T11:21:38.618Z,31.00
2017-06-24T11:24:06.095Z,28.13
2017-06-24T11:26:34.473Z,27.63
2017-06-24T11:29:01.989Z,27.73
2017-06-24T11:31:29.465Z,29.30
2017-06-24T11:33:56.975Z,30.73
2017-06-24T11:36:24.580Z,29.63
2017-06-24T11:38:52.138Z,27.03
2017-06-24T11:41:19.620Z,28.23
2017-06-24T11:43:47.134Z,26.27
2017-06-24T11:46:14.657Z,26.07
2017-06-24T11:48:42.133Z,26.20
2017-06-24T11:51:10.770Z,25.97
2017-06-24T11:53:38.308Z,26.27
2017-06-24T11:56:05.796Z,25.40
2017-06-24T11:58:33.280Z,25.73
2017-06-24T12:12:26.349Z,23.93
2017-06-24T12:14:53.822Z,27.10
2017-06-24T12:17:21.309Z,26.83
2017-06-24T12:19:49.205Z,28.00
2017-06-24T12:22:16.750Z,25.30
2017-06-24T12:24:44.906Z,25.97
2017-06-24T12:27:12.394Z,28.17
2017-06-24T12:29:39.861Z,29.70
2017-06-24T12:32:07.672Z,26.17
2017-06-24T12:34:35.632Z,26.00
2017-06-24T12:37:03.104Z,30.87
2017-06-24T12:39:31.069Z,29.47
2017-06-24T12:41:58.543Z,25.10
2017-06-24T12:44:26.410Z,26.50
2017-06-24T12:46:54.592Z,24.93
2017-06-24T12:49:22.066Z,26.73
2017-06-24T12:51:49.552Z,26.57
2017-06-24T12:54:17.163Z,26.13
2017-06-24T12:56:44.636Z,29.27
2017-06-24T12:59:12.341Z,27.73
2017-06-24T13:01:40.268Z,25.80
2017-06-24T13:04:07.769Z,27.40
2017-06-24T13:06:35.652Z,24.00
2017-06-24T13:09:03.550Z,23.57
2017-06-24T13:11:31.053Z,29.10
2017-06-24T13:13:58.543Z,25.43
2017-06-24T13:16:26.079Z,25.30
2017-06-24T13:18:53.950Z,23.87
2017-06-24T13:21:21.759Z,24.73
2017-06-24T13:23:49.264Z,20.90
2017-06-24T13:26:17.397Z,23.07
2017-06-24T13:28:45.711Z,22.67
2017-06-24T13:31:13.221Z,20.50
2017-06-24T13:33:40.714Z,19.80
2017-06-24T13:36:08.192Z,22.30
2017-06-24T13:38:35.975Z,22.50
2017-06-24T13:41:03.459Z,19.50
2017-06-24T13:43:30.957Z,17.87
2017-06-24T13:45:58.584Z,21.37
2017-06-24T13:48:26.064Z,23.80
2017-06-24T13:50:53.937Z,21.80
2017-06-24T13:53:21.458Z,25.07
2017-06-24T13:55:48.964Z,13.50
2017-06-24T13:58:16.458Z,11.40
2017-06-24T14:00:44.144Z,8.57
2017-06-24T14:03:12.016Z,9.30
2017-06-24T14:05:39.481Z,9.30
2017-06-24T14:08:07.264Z,8.73
2017-06-24T14:10:34.740Z,10.50
2017-06-24T14:13:02.235Z,8.10
2017-06-24T14:15:30.036Z,6.40
2017-06-24T14:17:57.524Z,6.30
2017-06-24T14:20:24.996Z,7.37
2017-06-24T14:22:52.499Z,6.90
2017-06-24T14:25:19.962Z,5.67
2017-06-24T14:27:47.464Z,6.60
2017-06-24T14:30:15.148Z,6.60
2017-06-24T14:32:42.620Z,10.07
2017-06-24T14:35:10.111Z,15.10
2017-06-24T14:37:37.615Z,6.87
2017-06-24T14:40:05.089Z,7.30
2017-06-24T14:42:32.572Z,6.30
2017-06-24T14:45:00.397Z,6.50
2017-06-24T14:47:27.882Z,6.30
2017-06-24T14:49:55.345Z,4.67
2017-06-24T14:52:23.264Z,4.50
2017-06-24T14:54:50.851Z,5.23
2017-06-24T14:57:18.339Z,5.07
2017-06-24T14:59:46.131Z,4.50
2017-06-24T15:02:13.611Z,4.87
2017-06-24T15:04:41.088Z,5.70
2017-06-24T15:07:08.728Z,5.53
2017-06-24T15:09:36.228Z,5.60
2017-06-24T15:12:03.725Z,5.07
2017-06-24T15:14:31.310Z,4.43
2017-06-24T15:16:58.789Z,6.37
2017-06-24T15:19:26.285Z,7.23
2017-06-24T15:21:54.292Z,6.30
2017-06-24T15:24:22.112Z,4.93
2017-06-24T15:26:49.597Z,4.60
2017-06-24T15:29:17.406Z,4.80
2017-06-24T15:31:44.882Z,4.53
2017-06-24T15:34:12.370Z,4.97
2017-06-24T15:36:40.149Z,4.77
2017-06-24T15:39:07.642Z,5.20
2017-06-24T15:41:35.122Z,6.43
2017-06-24T15:44:02.732Z,5.57
2017-06-24T15:46:30.200Z,4.53
2017-06-24T15:48:57.673Z,4.03
2017-06-24T15:51:26.309Z,4.03
2017-06-24T15:53:53.773Z,3.37
2017-06-24T15:56:21.249Z,3.70
2017-06-24T15:58:48.968Z,3.63
2017-06-24T16:01:16.471Z,3.93
2017-06-24T16:03:43.945Z,3.90
2017-06-24T16:06:12.377Z,3.80
2017-06-24T16:08:39.857Z,3.77
2017-06-24T16:11:07.337Z,4.37
2017-06-24T16:13:35.037Z,3.30
2017-06-24T16:16:02.544Z,3.43
2017-06-24T16:18:30.045Z,7.67
2017-06-24T16:21:01.891Z,4.03
2017-06-24T16:23:30.270Z,3.67
2017-06-24T16:25:57.857Z,3.90
2017-06-24T16:28:25.348Z,3.67
2017-06-24T16:30:52.840Z,3.50
2017-06-24T16:33:20.619Z,3.60
2017-06-24T16:35:48.109Z,3.57
2017-06-24T16:38:16.580Z,4.07
2017-06-24T16:40:44.730Z,3.50
2017-06-24T16:43:12.581Z,3.20
2017-06-24T16:45:40.380Z,3.17
2017-06-24T16:48:07.883Z,3.30
2017-06-24T16:50:35.346Z,3.10
2017-06-24T16:53:02.837Z,3.57
2017-06-24T16:55:30.580Z,4.10
2017-06-24T16:57:58.082Z,3.40
2017-06-24T17:00:26.030Z,3.33
2017-06-24T17:02:53.533Z,4.00
2017-06-24T17:05:21.042Z,3.90
2017-06-24T17:07:48.548Z,3.87
2017-06-24T17:10:16.049Z,3.40
2017-06-24T17:12:43.534Z,3.27
2017-06-24T17:15:11.405Z,12.50
2017-06-24T17:17:38.988Z,4.97
2017-06-24T17:20:06.469Z,3.60
2017-06-24T17:22:33.943Z,3.43
2017-06-24T17:25:01.693Z,3.20
2017-06-24T17:27:29.163Z,3.63
2017-06-24T17:29:57.233Z,3.40
2017-06-24T17:32:26.085Z,3.30
2017-06-24T17:34:53.575Z,4.10
2017-06-24T17:37:21.942Z,4.10
2017-06-24T17:39:50.611Z,3.50
2017-06-24T17:42:18.081Z,3.63
2017-06-24T17:44:45.854Z,3.67
2017-06-24T17:47:14.229Z,4.00
2017-06-24T17:49:43.469Z,3.87
2017-06-24T17:52:10.966Z,13.50
2017-06-24T17:54:38.500Z,4.40
2017-06-24T17:57:06.359Z,3.63
2017-06-24T17:59:34.820Z,3.40
2017-06-24T18:02:02.527Z,4.00
2017-06-24T18:04:30.053Z,4.10
2017-06-24T18:06:57.537Z,3.67
2017-06-24T18:09:25.645Z,3.80
2017-06-24T18:11:53.900Z,4.03
2017-06-24T18:14:21.386Z,3.50
2017-06-24T18:16:48.877Z,3.97
2017-06-24T18:19:16.744Z,3.73
2017-06-24T18:21:45.126Z,3.70
2017-06-24T18:24:12.904Z,4.00
2017-06-24T18:26:41.036Z,3.33
2017-06-24T18:29:09.018Z,3.80
2017-06-24T18:31:37.019Z,4.00
2017-06-24T18:34:04.517Z,3.33
2017-06-24T18:36:31.996Z,4.13
2017-06-24T18:38:59.873Z,3.67
2017-06-24T18:41:28.242Z,4.37
2017-06-24T18:43:55.759Z,4.10
2017-06-24T18:46:24.427Z,3.73
2017-06-24T18:48:51.894Z,5.07
2017-06-24T18:51:19.991Z,6.30
2017-06-24T18:53:47.811Z,3.97
2017-06-24T18:56:16.197Z,3.60
2017-06-24T18:58:44.291Z,4.00
2017-06-24T19:01:12.077Z,4.17
2017-06-24T19:03:39.975Z,4.33
2017-06-24T19:06:07.470Z,3.77
2017-06-24T19:08:35.852Z,3.90
2017-06-24T19:11:03.336Z,4.43
2017-06-24T19:13:31.448Z,4.07
2017-06-24T19:15:59.298Z,4.30
2017-06-24T19:18:27.903Z,4.63
2017-06-24T19:20:55.413Z,4.43
2017-06-24T19:23:23.579Z,4.00
2017-06-24T19:25:51.080Z,5.10
2017-06-24T19:28:18.981Z,25.50
2017-06-24T19:30:47.191Z,7.33
2017-06-24T19:33:15.656Z,4.40
2017-06-24T19:35:43.395Z,7.33
2017-06-24T19:38:12.402Z,6.30
2017-06-24T19:40:39.965Z,5.57
2017-06-24T19:43:08.344Z,4.50
2017-06-24T19:45:37.616Z,4.87
2017-06-24T19:48:05.098Z,4.07
2017-06-24T19:50:33.614Z,4.60
2017-06-24T19:53:01.411Z,4.20
2017-06-24T19:55:29.321Z,4.50
2017-06-24T19:57:56.780Z,4.90
2017-06-24T20:00:24.285Z,4.50
2017-06-24T20:02:51.787Z,3.90
2017-06-24T20:05:19.270Z,5.97
2017-06-24T20:10:21.339Z,3.90
2017-06-24T20:12:49.796Z,4.17
2017-06-24T20:15:17.305Z,5.10
2017-06-24T20:17:45.510Z,4.63
2017-06-24T20:20:13.434Z,4.17
2017-06-24T20:22:41.232Z,4.20
2017-06-24T20:25:09.128Z,4.47
2017-06-24T20:27:36.904Z,4.00
2017-06-24T20:30:04.408Z,4.20
2017-06-24T20:32:32.297Z,4.47
2017-06-24T20:35:00.064Z,3.77
2017-06-24T20:37:27.530Z,3.90
2017-06-24T20:39:55.058Z,4.00
2017-06-24T20:42:22.941Z,11.30
2017-06-24T20:44:50.401Z,5.57
2017-06-24T20:47:17.890Z,5.20
2017-06-24T20:49:45.391Z,5.20
2017-06-24T20:52:13.278Z,4.60
2017-06-24T20:54:40.781Z,4.40
2017-06-24T20:57:08.289Z,5.50
2017-06-24T20:59:35.763Z,4.20
2017-06-24T21:02:03.243Z,4.47
2017-06-24T21:04:30.996Z,4.37
2017-06-24T21:06:58.763Z,4.53
2017-06-24T21:09:26.224Z,4.77
2017-06-24T21:11:53.927Z,4.40
2017-06-24T21:14:21.896Z,4.80
2017-06-24T21:16:49.409Z,4.43
2017-06-24T21:19:17.107Z,5.00
2017-06-24T21:21:46.306Z,4.80
2017-06-24T21:24:14.171Z,4.73
2017-06-24T21:26:42.343Z,4.30
2017-06-24T21:29:10.836Z,4.47
2017-06-24T21:31:38.311Z,4.50
2017-06-24T21:34:05.823Z,5.33
2017-06-24T21:36:33.304Z,5.20
2017-06-24T21:39:01.093Z,4.30
2017-06-24T21:41:28.800Z,10.57
2017-06-24T21:43:56.281Z,10.53
2017-06-24T21:46:23.740Z,6.57
2017-06-24T21:48:51.236Z,5.37
2017-06-24T21:51:18.692Z,4.40
2017-06-24T21:53:47.159Z,5.27
2017-06-24T21:56:14.861Z,4.67
2017-06-24T21:58:42.519Z,4.93
2017-06-24T22:01:10.407Z,5.07
2017-06-24T22:03:38.557Z,5.10
2017-06-24T22:06:06.039Z,4.97
2017-06-24T22:08:33.898Z,5.00
2017-06-24T22:11:01.559Z,4.60
2017-06-24T22:13:29.012Z,5.20
2017-06-24T22:15:56.552Z,5.43
2017-06-24T22:18:24.691Z,6.10
2017-06-24T22:20:52.146Z,5.50
2017-06-24T22:23:19.597Z,5.50
2017-06-24T22:25:47.273Z,5.20
2017-06-24T22:28:14.726Z,5.37
2017-06-24T22:30:42.171Z,5.03
2017-06-24T22:33:09.634Z,5.37
2017-06-24T22:35:37.084Z,5.20
2017-06-24T22:38:04.519Z,5.30
2017-06-24T22:40:32.296Z,5.00
2017-06-24T22:42:59.736Z,5.27
2017-06-24T22:45:27.171Z,5.20
2017-06-24T22:47:54.640Z,5.40
2017-06-24T22:50:22.092Z,6.50
2017-06-24T22:52:49.531Z,6.30
2017-06-24T22:55:17.000Z,7.87
2017-06-24T22:57:44.442Z,7.87
2017-06-24T23:00:11.882Z,6.20
2017-06-24T23:02:39.732Z,6.13
2017-06-24T23:05:07.569Z,6.07
2017-06-24T23:07:35.013Z,6.90
2017-06-24T23:10:02.483Z,6.80
2017-06-24T23:12:29.923Z,6.83
2017-06-24T23:14:57.363Z,7.30
2017-06-24T23:17:25.145Z,7.27
2017-06-24T23:19:53.455Z,6.47
2017-06-24T23:22:21.295Z,8.10
2017-06-24T23:24:48.768Z,9.47
2017-06-24T23:27:16.210Z,6.13
2017-06-24T23:29:43.647Z,6.63
2017-06-24T23:32:11.106Z,6.90
2017-06-24T23:34:38.575Z,7.50
2017-06-24T23:37:06.025Z,6.83
2017-06-24T23:39:33.467Z,6.57
2017-06-24T23:42:00.911Z,6.80
2017-06-24T23:44:28.355Z,7.27
2017-06-24T23:46:56.138Z,6.30
2017-06-24T23:49:23.582Z,6.67
2017-06-24T23:51:51.019Z,6.70
2017-06-24T23:54:18.811Z,6.37
2017-06-24T23:56:46.260Z,7.30
2017-06-24T23:59:13.699Z,7.70
